Time;durP1;ratioP1;P1;durP2;ratioP2;P2;SDS_P1;SDS_P2;PMS_P1;PMS_P2;Temp;Humidity;BMP_temperature;BMP_pressure;BME280_temperature;BME280_humidity;BME280_pressure;Samples;Min_cycle;Max_cycle;Signal;HPM_P1;HPM_P2
2023/12/24 00:01:13;;;;;;;0.67;0.67;;;8.60;99.90;;;;;;5074372;28;20309;-78
2023/12/24 00:03:40;;;;;;;0.80;0.80;;;8.60;99.90;;;;;;5076030;28;20206;-78
2023/12/24 00:06:09;;;;;;;0.87;0.80;;;8.50;99.90;;;;;;5068307;28;20214;-78
2023/12/24 00:08:36;;;;;;;1.00;0.93;;;8.60;99.90;;;;;;5074403;28;20260;-79
2023/12/24 00:11:03;;;;;;;0.83;0.83;;;8.60;99.90;;;;;;5069194;28;20301;-79
2023/12/24 00:13:31;;;;;;;1.10;1.00;;;8.60;99.90;;;;;;5062887;28;20293;-79
2023/12/24 00:15:58;;;;;;;2.77;1.60;;;8.60;99.90;;;;;;5062086;28;20234;-79
2023/12/24 00:18:25;;;;;;;0.80;0.80;;;8.50;99.90;;;;;;5071337;28;20289;-78
2023/12/24 00:20:52;;;;;;;2.20;1.13;;;8.50;99.90;;;;;;5075514;28;20248;-78
2023/12/24 00:23:19;;;;;;;1.50;0.80;;;8.50;99.90;;;;;;5065549;28;20282;-79
2023/12/24 00:25:46;;;;;;;0.90;0.90;;;8.50;99.90;;;;;;5066077;28;20225;-80
2023/12/24 00:28:13;;;;;;;0.70;0.70;;;8.50;99.90;;;;;;5061339;28;20302;-79
2023/12/24 00:30:39;;;;;;;1.10;1.00;;;8.50;99.90;;;;;;5066321;28;20312;-80
2023/12/24 00:33:07;;;;;;;1.17;1.10;;;8.50;99.90;;;;;;5073241;28;20285;-79
2023/12/24 00:35:35;;;;;;;1.37;0.97;;;8.50;99.90;;;;;;5067721;28;20213;-80
2023/12/24 00:38:02;;;;;;;1.10;1.10;;;8.50;99.90;;;;;;5064657;28;20198;-79
2023/12/24 00:40:32;;;;;;;1.20;1.10;;;8.50;99.90;;;;;;5065922;28;20298;-80
2023/12/24 00:43:00;;;;;;;1.40;1.30;;;8.40;99.90;;;;;;5074294;28;21740;-78
2023/12/24 00:45:26;;;;;;;1.30;1.20;;;8.60;99.90;;;;;;5071341;28;20600;-79
2023/12/24 00:47:53;;;;;;;2.17;1.40;;;8.60;99.90;;;;;;5070106;28;20217;-80
2023/12/24 00:50:20;;;;;;;2.07;1.70;;;8.50;99.90;;;;;;5072185;28;20562;-79
2023/12/24 00:52:47;;;;;;;1.50;1.40;;;8.60;99.90;;;;;;5067866;28;20310;-80
2023/12/24 00:55:14;;;;;;;2.70;1.93;;;8.50;99.90;;;;;;5081582;28;20200;-80
2023/12/24 00:57:42;;;;;;;2.20;1.33;;;8.50;99.90;;;;;;5073255;28;20293;-78
2023/12/24 01:00:10;;;;;;;3.37;1.93;;;8.60;99.90;;;;;;5072942;28;20265;-79
2023/12/24 01:02:37;;;;;;;2.80;2.10;;;8.40;99.90;;;;;;5072785;28;20253;-80
2023/12/24 01:05:06;;;;;;;2.40;2.20;;;8.40;99.90;;;;;;5072693;28;20209;-80
2023/12/24 01:07:33;;;;;;;3.93;3.10;;;8.40;99.90;;;;;;5073128;28;20587;-79
2023/12/24 01:10:00;;;;;;;4.30;3.57;;;8.40;99.90;;;;;;5072501;28;20229;-79
2023/12/24 01:12:26;;;;;;;5.43;4.10;;;8.50;99.90;;;;;;5075110;28;20226;-81
2023/12/24 01:14:55;;;;;;;4.47;4.03;;;8.50;99.90;;;;;;5075183;28;20281;-80
2023/12/24 01:17:21;;;;;;;5.27;3.97;;;8.40;99.90;;;;;;5078820;28;20227;-79
2023/12/24 01:19:48;;;;;;;5.80;4.10;;;8.50;99.90;;;;;;5077291;28;20297;-80
2023/12/24 01:22:15;;;;;;;5.60;4.30;;;8.50;99.90;;;;;;5068119;28;20309;-79
2023/12/24 01:24:42;;;;;;;5.03;4.10;;;8.50;99.90;;;;;;5075606;28;20205;-79
2023/12/24 01:27:09;;;;;;;6.97;4.37;;;8.50;99.90;;;;;;5066790;28;20225;-79
2023/12/24 01:29:35;;;;;;;4.07;3.67;;;8.50;99.90;;;;;;5072417;28;20666;-79
2023/12/24 01:32:04;;;;;;;4.50;3.90;;;8.50;99.90;;;;;;5059359;28;20230;-78
2023/12/24 01:34:31;;;;;;;4.40;3.43;;;8.40;99.90;;;;;;5064093;28;20294;-80
2023/12/24 01:36:58;;;;;;;4.67;4.17;;;8.90;99.90;;;;;;5072729;28;20224;-79
2023/12/24 01:39:25;;;;;;;4.43;3.77;;;8.50;99.90;;;;;;5066979;28;20560;-79
2023/12/24 01:41:52;;;;;;;5.67;3.83;;;8.60;99.90;;;;;;5071350;28;20256;-79
2023/12/24 01:44:19;;;;;;;5.03;3.40;;;8.60;99.90;;;;;;5074829;28;20286;-79
2023/12/24 01:46:46;;;;;;;6.17;3.90;;;8.50;99.90;;;;;;5073873;28;20281;-80
2023/12/24 01:49:16;;;;;;;4.00;3.23;;;8.50;99.90;;;;;;5074613;28;20711;-79
2023/12/24 01:51:43;;;;;;;3.40;3.10;;;8.60;99.90;;;;;;5070563;28;20226;-81
2023/12/24 01:54:09;;;;;;;3.83;3.00;;;8.50;99.90;;;;;;5074987;28;20557;-79
2023/12/24 01:56:39;;;;;;;3.10;2.80;;;8.50;99.90;;;;;;5062926;28;21177;-80
2023/12/24 01:59:08;;;;;;;3.93;3.27;;;8.50;99.90;;;;;;5072739;28;20199;-81
2023/12/24 02:01:36;;;;;;;3.83;3.20;;;8.50;99.90;;;;;;5069129;28;20260;-80
2023/12/24 02:04:03;;;;;;;2.90;2.60;;;8.50;99.90;;;;;;5073478;28;20203;-80
2023/12/24 02:06:32;;;;;;;4.57;2.90;;;8.40;99.90;;;;;;5063503;28;20610;-79
2023/12/24 02:08:59;;;;;;;3.43;2.60;;;8.50;99.90;;;;;;5073635;28;20222;-79
2023/12/24 02:11:26;;;;;;;4.10;2.77;;;8.50;99.90;;;;;;5071658;28;20250;-81
2023/12/24 02:13:53;;;;;;;2.43;2.23;;;8.40;99.90;;;;;;5072202;28;20210;-80
2023/12/24 02:16:22;;;;;;;2.67;2.47;;;8.40;99.90;;;;;;5072743;28;20610;-78
2023/12/24 02:18:50;;;;;;;4.93;2.40;;;8.50;99.90;;;;;;5073621;28;20645;-80
2023/12/24 02:21:18;;;;;;;3.97;2.17;;;8.50;99.90;;;;;;5074300;28;20313;-80
2023/12/24 02:23:45;;;;;;;2.60;2.40;;;8.50;99.90;;;;;;5078978;28;20201;-80
2023/12/24 02:26:20;;;;;;;3.50;2.53;;;8.50;99.90;;;;;;5065653;28;20208;-79
2023/12/24 02:28:52;;;;;;;2.10;1.90;;;8.50;99.90;;;;;;5073455;28;20654;-79
2023/12/24 02:31:21;;;;;;;2.37;2.17;;;8.40;99.90;;;;;;5055475;28;20715;-79
2023/12/24 02:33:51;;;;;;;2.47;2.20;;;8.40;99.90;;;;;;5057512;28;20199;-80
2023/12/24 02:36:20;;;;;;;2.60;2.20;;;8.40;99.90;;;;;;5069860;28;20198;-80
2023/12/24 02:38:47;;;;;;;2.97;2.17;;;8.40;99.90;;;;;;5073662;28;20289;-79
2023/12/24 02:41:14;;;;;;;2.83;2.30;;;8.50;99.90;;;;;;5071376;28;20222;-79
2023/12/24 02:43:41;;;;;;;4.60;2.53;;;8.50;99.90;;;;;;5065168;28;20650;-80
2023/12/24 02:46:08;;;;;;;6.53;2.60;;;8.50;99.90;;;;;;5067053;28;20200;-82
2023/12/24 02:48:35;;;;;;;4.10;2.60;;;8.50;99.90;;;;;;5068851;28;20243;-79
2023/12/24 02:51:03;;;;;;;2.63;2.43;;;8.50;99.90;;;;;;5070326;28;20651;-81
2023/12/24 02:53:32;;;;;;;5.23;2.80;;;8.50;99.90;;;;;;5067026;28;20205;-81
2023/12/24 02:55:59;;;;;;;3.20;2.67;;;8.50;99.90;;;;;;5069987;28;20205;-80
2023/12/24 02:58:26;;;;;;;3.30;2.57;;;8.50;99.90;;;;;;5069717;28;20653;-80
2023/12/24 03:00:53;;;;;;;4.13;2.70;;;8.50;99.90;;;;;;5066637;28;20206;-79
2023/12/24 03:03:20;;;;;;;3.27;2.97;;;8.50;99.90;;;;;;5072210;28;20212;-79
2023/12/24 03:05:47;;;;;;;2.83;2.50;;;8.50;99.90;;;;;;5071703;28;20248;-80
2023/12/24 03:08:14;;;;;;;4.73;3.07;;;8.50;99.90;;;;;;5072759;28;20707;-78
2023/12/24 03:10:42;;;;;;;3.80;3.00;;;8.50;99.90;;;;;;5074319;28;20213;-80
2023/12/24 03:13:09;;;;;;;4.10;3.00;;;8.50;99.90;;;;;;5068928;28;20289;-80
2023/12/24 03:15:36;;;;;;;3.57;2.90;;;8.60;99.90;;;;;;5077131;28;20765;-80
2023/12/24 03:18:03;;;;;;;4.50;3.60;;;8.50;99.90;;;;;;5071655;28;20195;-78
2023/12/24 03:20:30;;;;;;;4.80;3.87;;;8.50;99.90;;;;;;5078448;28;20212;-79
2023/12/24 03:22:57;;;;;;;5.37;4.10;;;8.50;99.90;;;;;;5075624;28;20225;-80
2023/12/24 03:25:24;;;;;;;6.57;4.47;;;8.60;99.90;;;;;;5071513;28;20664;-80
2023/12/24 03:27:52;;;;;;;8.03;4.37;;;8.50;99.90;;;;;;5074403;28;20661;-80
2023/12/24 03:30:19;;;;;;;5.60;4.37;;;8.50;99.90;;;;;;5077975;28;20657;-80
2023/12/24 03:32:46;;;;;;;6.90;4.50;;;8.60;99.90;;;;;;5078265;28;20229;-82
2023/12/24 03:35:13;;;;;;;6.87;4.90;;;8.60;99.90;;;;;;5076782;28;20206;-79
2023/12/24 03:37:40;;;;;;;5.27;4.37;;;8.50;99.90;;;;;;5062839;28;20241;-80
2023/12/24 03:40:08;;;;;;;6.93;4.90;;;8.60;99.90;;;;;;5074634;28;20217;-80
2023/12/24 03:42:34;;;;;;;7.47;5.37;;;8.50;99.90;;;;;;5069900;28;20305;-80
2023/12/24 03:45:03;;;;;;;7.50;5.33;;;8.50;99.90;;;;;;5073557;28;21637;-79
2023/12/24 03:47:30;;;;;;;7.00;5.13;;;8.50;99.90;;;;;;5072083;28;20655;-79
2023/12/24 03:49:56;;;;;;;8.77;5.77;;;8.50;99.90;;;;;;5077565;28;20210;-80
2023/12/24 03:52:22;;;;;;;6.93;5.20;;;8.50;99.90;;;;;;5074894;28;20226;-79
2023/12/24 03:54:49;;;;;;;8.20;4.97;;;8.50;99.90;;;;;;5074591;28;20205;-79
2023/12/24 03:57:16;;;;;;;9.13;5.60;;;8.50;99.90;;;;;;5072148;28;20294;-79
2023/12/24 03:59:43;;;;;;;8.40;6.10;;;8.50;99.90;;;;;;5068204;28;20205;-80
2023/12/24 04:02:11;;;;;;;10.37;5.73;;;8.50;99.90;;;;;;5068432;28;20219;-81
2023/12/24 04:04:38;;;;;;;9.57;5.97;;;8.50;99.90;;;;;;5076110;28;20213;-80
2023/12/24 04:07:05;;;;;;;12.63;7.30;;;8.60;99.90;;;;;;5070711;28;20299;-79
2023/12/24 04:09:33;;;;;;;10.43;7.40;;;8.70;99.90;;;;;;5073219;28;20222;-81
2023/12/24 04:12:00;;;;;;;11.23;7.30;;;8.60;99.90;;;;;;5074927;28;20222;-79
2023/12/24 04:14:27;;;;;;;14.10;8.23;;;8.60;99.90;;;;;;5074695;28;20202;-80
2023/12/24 04:16:53;;;;;;;17.63;9.90;;;8.60;99.90;;;;;;5067096;28;20207;-80
2023/12/24 04:19:22;;;;;;;16.83;9.57;;;8.70;99.90;;;;;;5072499;28;20287;-81
2023/12/24 04:21:49;;;;;;;16.43;9.30;;;8.60;99.90;;;;;;5076140;28;20578;-79
2023/12/24 04:24:16;;;;;;;15.33;9.17;;;8.60;99.90;;;;;;5072827;28;20295;-82
2023/12/24 04:26:43;;;;;;;16.47;9.10;;;8.60;99.90;;;;;;5073081;28;20207;-80
2023/12/24 04:29:10;;;;;;;13.40;8.83;;;8.60;99.90;;;;;;5074101;28;20215;-81
2023/12/24 04:31:39;;;;;;;15.17;9.80;;;8.60;99.90;;;;;;5074565;28;20776;-80
2023/12/24 04:34:06;;;;;;;14.23;8.33;;;8.60;99.90;;;;;;5076688;28;20294;-80
2023/12/24 04:36:34;;;;;;;14.63;8.93;;;8.60;99.90;;;;;;5077308;28;20210;-80
2023/12/24 04:39:01;;;;;;;12.73;8.80;;;8.50;99.90;;;;;;5069673;28;20613;-79
2023/12/24 04:41:28;;;;;;;13.33;8.40;;;8.50;99.90;;;;;;5064361;28;20219;-80
2023/12/24 04:43:55;;;;;;;13.03;8.37;;;8.50;99.90;;;;;;5072209;28;20202;-79
2023/12/24 04:46:22;;;;;;;14.63;9.20;;;8.60;99.90;;;;;;5071952;28;20657;-81
2023/12/24 04:48:49;;;;;;;16.10;9.77;;;8.40;99.90;;;;;;5061464;28;20219;-81
2023/12/24 04:51:15;;;;;;;19.77;11.00;;;8.40;99.90;;;;;;5065103;28;20337;-79
2023/12/24 04:53:43;;;;;;;16.77;10.83;;;8.40;99.90;;;;;;5068038;28;20728;-81
2023/12/24 04:56:19;;;;;;;16.73;10.27;;;8.50;99.90;;;;;;5075077;28;20663;-79
2023/12/24 04:58:46;;;;;;;15.20;10.27;;;8.50;99.90;;;;;;5069271;28;20213;-80
2023/12/24 05:01:15;;;;;;;16.27;10.30;;;8.50;99.90;;;;;;5068687;28;20294;-80
2023/12/24 05:03:42;;;;;;;15.77;10.40;;;8.50;99.90;;;;;;5071398;28;20203;-80
2023/12/24 05:06:09;;;;;;;15.93;10.63;;;8.50;99.90;;;;;;5077438;28;20194;-80
2023/12/24 05:08:36;;;;;;;16.53;10.50;;;8.50;99.90;;;;;;5075224;28;20249;-81
2023/12/24 05:11:06;;;;;;;16.37;9.77;;;8.50;99.90;;;;;;5071283;28;20302;-80
2023/12/24 05:13:33;;;;;;;16.10;10.27;;;8.60;99.90;;;;;;5069632;28;20234;-79
2023/12/24 05:16:00;;;;;;;15.10;9.97;;;8.50;99.90;;;;;;5072819;28;20289;-80
2023/12/24 05:18:26;;;;;;;15.93;9.33;;;8.60;99.90;;;;;;5072087;28;20191;-80
2023/12/24 05:20:53;;;;;;;12.07;7.93;;;8.60;99.90;;;;;;5076782;28;20734;-79
2023/12/24 05:23:21;;;;;;;11.50;7.17;;;8.60;99.90;;;;;;5074788;28;20205;-80
2023/12/24 05:25:48;;;;;;;9.40;6.87;;;8.60;99.90;;;;;;5069032;28;20199;-79
2023/12/24 05:28:17;;;;;;;8.60;5.80;;;8.60;99.90;;;;;;5071934;28;20706;-78
2023/12/24 05:30:44;;;;;;;8.43;6.00;;;8.70;99.90;;;;;;5074471;28;20209;-80
2023/12/24 05:33:11;;;;;;;8.47;5.60;;;8.70;99.90;;;;;;5074789;28;20209;-79
2023/12/24 05:35:38;;;;;;;7.93;5.60;;;8.90;99.90;;;;;;5068364;28;20259;-79
2023/12/24 05:38:05;;;;;;;7.97;5.27;;;8.80;99.90;;;;;;5077294;28;20206;-81
2023/12/24 05:40:32;;;;;;;6.07;4.63;;;8.90;99.90;;;;;;5074275;28;20204;-79
2023/12/24 05:42:59;;;;;;;5.47;4.60;;;8.80;99.90;;;;;;5074504;28;20225;-80
2023/12/24 05:45:27;;;;;;;6.87;4.27;;;8.90;99.90;;;;;;5074982;28;20202;-80
2023/12/24 05:47:53;;;;;;;4.77;4.27;;;8.80;99.90;;;;;;5073064;28;20658;-79
2023/12/24 05:50:20;;;;;;;4.03;3.50;;;8.80;99.90;;;;;;5065484;28;20250;-79
2023/12/24 05:52:47;;;;;;;3.67;2.87;;;8.90;99.90;;;;;;5060652;28;20249;-79
2023/12/24 05:55:13;;;;;;;3.07;2.77;;;8.80;99.90;;;;;;5070516;28;20285;-80
2023/12/24 05:57:40;;;;;;;3.13;2.83;;;8.80;99.90;;;;;;5066806;28;20231;-80
2023/12/24 06:00:09;;;;;;;3.20;2.90;;;8.80;99.90;;;;;;5066575;28;20701;-78
2023/12/24 06:02:37;;;;;;;2.90;2.70;;;8.70;99.90;;;;;;5072567;28;20249;-80
2023/12/24 06:05:04;;;;;;;3.80;2.20;;;8.70;99.90;;;;;;5068864;28;20255;-78
2023/12/24 06:07:32;;;;;;;2.30;2.10;;;8.70;99.90;;;;;;5068960;28;20285;-80
2023/12/24 06:09:59;;;;;;;2.10;2.00;;;8.80;99.90;;;;;;5070317;28;20210;-79
2023/12/24 06:12:26;;;;;;;2.40;2.20;;;8.80;99.90;;;;;;5068319;28;20743;-79
2023/12/24 06:14:53;;;;;;;3.80;2.80;;;8.70;99.90;;;;;;5071477;28;20210;-78
2023/12/24 06:17:20;;;;;;;2.50;2.20;;;8.80;99.90;;;;;;5068674;28;20614;-79
2023/12/24 06:19:48;;;;;;;2.87;2.20;;;8.80;99.90;;;;;;5055402;28;20194;-77
2023/12/24 06:22:15;;;;;;;2.33;1.90;;;8.80;99.90;;;;;;5065985;28;20306;-78
2023/12/24 06:24:42;;;;;;;2.87;2.20;;;8.80;99.90;;;;;;5062732;28;20293;-80
2023/12/24 06:27:09;;;;;;;3.77;2.50;;;8.90;99.90;;;;;;5074967;28;20647;-81
2023/12/24 06:29:37;;;;;;;2.60;2.10;;;8.90;99.90;;;;;;5067973;28;20222;-81
2023/12/24 06:32:05;;;;;;;1.67;1.57;;;8.90;99.90;;;;;;5059866;28;20298;-80
2023/12/24 06:34:32;;;;;;;1.50;1.40;;;8.90;99.90;;;;;;5072202;28;20205;-83
2023/12/24 06:37:00;;;;;;;1.30;1.20;;;8.90;99.90;;;;;;5067135;28;20203;-81
2023/12/24 06:39:27;;;;;;;1.57;1.47;;;8.90;99.90;;;;;;5072295;28;20619;-80
2023/12/24 06:41:54;;;;;;;1.40;1.30;;;8.90;99.90;;;;;;5074739;28;20308;-80
2023/12/24 06:44:22;;;;;;;1.17;1.07;;;8.90;99.90;;;;;;5069343;28;20194;-81
2023/12/24 06:46:49;;;;;;;1.27;1.13;;;8.90;99.90;;;;;;5064536;28;20194;-81
2023/12/24 06:49:16;;;;;;;1.30;1.17;;;8.90;99.90;;;;;;5069266;28;20219;-79
2023/12/24 06:51:43;;;;;;;1.00;1.00;;;8.90;99.90;;;;;;5062699;28;20234;-79
2023/12/24 06:54:11;;;;;;;1.00;1.00;;;8.90;99.90;;;;;;5064705;28;20289;-77
2023/12/24 06:56:38;;;;;;;1.37;1.20;;;8.90;99.90;;;;;;5069210;28;20290;-79
2023/12/24 06:59:05;;;;;;;1.10;1.00;;;8.90;99.90;;;;;;5069667;28;20190;-79
2023/12/24 07:01:32;;;;;;;0.90;0.90;;;8.90;99.90;;;;;;5069113;28;20223;-78
2023/12/24 07:03:59;;;;;;;1.23;1.13;;;9.00;99.90;;;;;;5067111;28;20230;-80
2023/12/24 07:06:26;;;;;;;0.70;0.70;;;8.90;99.90;;;;;;5069821;28;20206;-79
2023/12/24 07:08:53;;;;;;;0.60;0.60;;;8.90;99.90;;;;;;5067463;28;20275;-81
2023/12/24 07:11:21;;;;;;;2.53;1.50;;;8.90;99.90;;;;;;5070514;28;20272;-81
2023/12/24 07:13:48;;;;;;;0.80;0.80;;;8.90;99.90;;;;;;5073640;28;20198;-81
2023/12/24 07:16:15;;;;;;;0.80;0.80;;;8.90;99.90;;;;;;5064263;28;20692;-80
2023/12/24 07:18:42;;;;;;;0.50;0.47;;;8.90;99.90;;;;;;5068440;28;20643;-79
2023/12/24 07:21:09;;;;;;;0.40;0.40;;;8.90;99.90;;;;;;5067136;28;20706;-79
2023/12/24 07:23:37;;;;;;;0.50;0.50;;;8.90;99.90;;;;;;5073986;28;20248;-81
2023/12/24 07:26:06;;;;;;;0.60;0.60;;;9.00;99.90;;;;;;5062674;28;20203;-81
2023/12/24 07:28:34;;;;;;;0.40;0.40;;;9.00;99.90;;;;;;5064477;28;20206;-81
2023/12/24 07:31:01;;;;;;;0.60;0.60;;;9.00;99.90;;;;;;5064905;28;20229;-82
2023/12/24 07:33:31;;;;;;;0.40;0.40;;;9.10;99.90;;;;;;5065670;28;20222;-80
2023/12/24 07:35:58;;;;;;;0.90;0.33;;;9.10;99.90;;;;;;5068255;28;20205;-79
2023/12/24 07:38:29;;;;;;;0.50;0.50;;;9.20;99.90;;;;;;5064406;28;20225;-80
2023/12/24 07:40:56;;;;;;;0.40;0.40;;;9.20;99.90;;;;;;5069102;28;20309;-80
2023/12/24 07:43:23;;;;;;;0.50;0.50;;;9.20;99.90;;;;;;5067944;28;20318;-79
2023/12/24 07:45:52;;;;;;;0.30;0.30;;;9.30;99.90;;;;;;5067642;28;20217;-80
2023/12/24 07:48:19;;;;;;;0.60;0.60;;;9.20;99.90;;;;;;5062391;28;20966;-79
2023/12/24 07:50:46;;;;;;;0.30;0.30;;;9.20;99.90;;;;;;5072317;28;20229;-83
2023/12/24 07:53:13;;;;;;;0.50;0.50;;;9.30;99.90;;;;;;5076918;28;20234;-81
2023/12/24 07:55:41;;;;;;;0.30;0.30;;;9.40;99.90;;;;;;5081617;28;20955;-82
2023/12/24 07:58:08;;;;;;;0.37;0.37;;;9.30;99.90;;;;;;5081029;28;20624;-82
2023/12/24 08:00:35;;;;;;;0.30;0.30;;;9.40;99.90;;;;;;5081772;28;20214;-82
2023/12/24 08:03:04;;;;;;;0.40;0.40;;;9.40;99.90;;;;;;5095933;28;20205;-82
2023/12/24 08:05:31;;;;;;;0.50;0.50;;;9.40;99.90;;;;;;5102759;28;20251;-81
2023/12/24 08:07:58;;;;;;;0.40;0.40;;;9.50;99.90;;;;;;5100666;28;20217;-83
2023/12/24 08:10:26;;;;;;;0.30;0.30;;;9.50;99.90;;;;;;5071970;28;20689;-82
2023/12/24 08:12:53;;;;;;;0.30;0.30;;;9.40;99.90;;;;;;5062105;28;20231;-81
2023/12/24 08:15:21;;;;;;;2.50;1.87;;;9.50;99.90;;;;;;5067112;28;20612;-82
2023/12/24 08:17:49;;;;;;;1.60;1.30;;;9.50;99.90;;;;;;5081936;28;20206;-81
2023/12/24 08:20:21;;;;;;;0.80;0.70;;;9.60;99.90;;;;;;5080555;28;20221;-82
2023/12/24 08:22:49;;;;;;;0.43;0.43;;;9.60;99.90;;;;;;5082101;28;20261;-83
2023/12/24 08:25:16;;;;;;;0.60;0.60;;;9.60;99.90;;;;;;5066717;28;20603;-82
2023/12/24 08:27:43;;;;;;;0.40;0.40;;;9.50;99.90;;;;;;5061191;28;20740;-81
2023/12/24 08:30:11;;;;;;;0.40;0.40;;;9.60;99.90;;;;;;5062118;28;20215;-80
2023/12/24 08:32:37;;;;;;;0.57;0.50;;;9.60;99.90;;;;;;5074425;28;20305;-79
2023/12/24 08:35:05;;;;;;;0.30;0.30;;;9.60;99.90;;;;;;5084098;28;20313;-81
2023/12/24 08:37:33;;;;;;;0.60;0.60;;;9.60;99.90;;;;;;5083073;28;20202;-81
2023/12/24 08:40:00;;;;;;;0.37;0.37;;;9.70;99.90;;;;;;5082900;28;20726;-80
2023/12/24 08:42:27;;;;;;;0.80;0.80;;;9.70;99.90;;;;;;5062278;28;20662;-81
2023/12/24 08:44:53;;;;;;;0.53;0.53;;;9.80;99.90;;;;;;5071378;28;20213;-82
2023/12/24 08:47:21;;;;;;;0.60;0.60;;;10.00;99.90;;;;;;5063377;28;20199;-83
2023/12/24 08:49:47;;;;;;;0.47;0.47;;;9.90;99.90;;;;;;5066558;28;20218;-83
2023/12/24 08:52:14;;;;;;;0.77;0.77;;;9.80;99.90;;;;;;5082841;28;20230;-81
2023/12/24 08:54:42;;;;;;;1.33;0.97;;;9.80;99.90;;;;;;5082149;28;20206;-79
2023/12/24 08:57:09;;;;;;;0.80;0.80;;;9.80;99.90;;;;;;5080373;28;20198;-80
2023/12/24 08:59:36;;;;;;;0.80;0.80;;;9.80;99.90;;;;;;5080439;28;20202;-82
2023/12/24 09:02:03;;;;;;;0.97;0.97;;;9.80;99.90;;;;;;5080526;28;20688;-81
2023/12/24 09:04:29;;;;;;;1.00;1.00;;;9.80;99.90;;;;;;5080387;28;20218;-81
2023/12/24 09:06:56;;;;;;;0.80;0.80;;;9.80;99.90;;;;;;5079879;28;20293;-81
2023/12/24 09:09:24;;;;;;;1.40;1.30;;;9.80;99.90;;;;;;5080227;28;20750;-82
2023/12/24 09:11:52;;;;;;;1.10;1.00;;;9.70;99.90;;;;;;5080296;28;20299;-82
2023/12/24 09:14:19;;;;;;;1.00;1.00;;;9.70;99.90;;;;;;5079682;28;20203;-80
2023/12/24 09:16:45;;;;;;;0.80;0.80;;;9.90;99.90;;;;;;5078825;28;20212;-80
2023/12/24 09:19:12;;;;;;;1.10;1.10;;;9.60;99.90;;;;;;5076782;28;20207;-79
2023/12/24 09:21:39;;;;;;;0.80;0.80;;;9.80;99.90;;;;;;5079846;28;20250;-79
2023/12/24 09:24:06;;;;;;;1.87;1.10;;;9.80;99.90;;;;;;5082389;28;20229;-80
2023/12/24 09:26:33;;;;;;;1.33;1.20;;;9.80;99.90;;;;;;5080308;28;20198;-81
2023/12/24 09:29:02;;;;;;;1.17;1.17;;;9.80;99.90;;;;;;5079738;28;20225;-82
2023/12/24 09:31:28;;;;;;;0.70;0.70;;;9.80;99.90;;;;;;5074873;28;20724;-80
2023/12/24 09:33:55;;;;;;;1.03;1.00;;;9.80;99.90;;;;;;5078863;28;20679;-79
2023/12/24 09:36:22;;;;;;;0.97;0.93;;;9.90;99.90;;;;;;5081884;28;20213;-82
2023/12/24 09:38:49;;;;;;;1.80;1.10;;;9.90;99.90;;;;;;5079996;28;20588;-77
2023/12/24 09:41:19;;;;;;;1.10;1.10;;;10.00;99.90;;;;;;5079350;28;20293;-78
2023/12/24 09:43:46;;;;;;;0.77;0.77;;;10.00;99.90;;;;;;5080446;28;20591;-78
2023/12/24 09:46:14;;;;;;;0.97;0.97;;;10.00;99.90;;;;;;5080050;28;20297;-78
2023/12/24 09:48:41;;;;;;;0.83;0.83;;;10.00;99.90;;;;;;5080286;28;20209;-79
2023/12/24 09:51:08;;;;;;;1.17;1.10;;;10.00;99.90;;;;;;5079622;28;20236;-78
2023/12/24 09:53:35;;;;;;;1.20;0.97;;;10.00;99.90;;;;;;5079009;28;20218;-79
2023/12/24 09:56:02;;;;;;;1.47;1.37;;;10.00;99.90;;;;;;5079285;28;20226;-79
2023/12/24 09:58:30;;;;;;;0.80;0.80;;;10.00;99.90;;;;;;5079517;28;20222;-80
2023/12/24 10:00:57;;;;;;;1.00;1.00;;;10.00;99.90;;;;;;5079700;28;20763;-80
2023/12/24 10:03:24;;;;;;;1.23;1.23;;;10.00;99.90;;;;;;5081136;28;20221;-82
2023/12/24 10:05:59;;;;;;;1.20;1.20;;;10.00;99.90;;;;;;5079783;28;20206;-80
2023/12/24 10:08:26;;;;;;;1.53;1.33;;;10.10;99.90;;;;;;5080700;28;20221;-83
2023/12/24 10:10:53;;;;;;;1.07;1.07;;;10.00;99.90;;;;;;5080792;28;20225;-81
2023/12/24 10:13:21;;;;;;;1.17;1.10;;;10.10;99.90;;;;;;5079670;28;20233;-79
2023/12/24 10:15:48;;;;;;;1.00;1.00;;;10.10;99.90;;;;;;5077670;28;20217;-80
2023/12/24 10:18:19;;;;;;;1.30;1.30;;;10.00;99.90;;;;;;5076237;28;20571;-82
2023/12/24 10:20:49;;;;;;;1.50;1.40;;;10.10;99.90;;;;;;5077605;28;20255;-78
2023/12/24 10:23:15;;;;;;;1.50;1.40;;;10.20;99.90;;;;;;5080032;28;20293;-80
2023/12/24 10:25:42;;;;;;;1.53;1.43;;;10.20;99.90;;;;;;5081777;28;20216;-81
2023/12/24 10:28:09;;;;;;;1.50;1.40;;;10.30;99.90;;;;;;5081396;28;20574;-78
2023/12/24 10:30:36;;;;;;;2.30;1.37;;;10.30;99.90;;;;;;5080423;28;20226;-78
2023/12/24 10:33:10;;;;;;;1.70;1.60;;;10.30;99.90;;;;;;5079999;28;20222;-79
2023/12/24 10:35:36;;;;;;;1.00;1.00;;;10.30;99.90;;;;;;5079576;28;20216;-81
2023/12/24 10:38:15;;;;;;;1.70;1.60;;;10.30;99.90;;;;;;5079167;28;20213;-83
2023/12/24 10:40:42;;;;;;;1.70;1.60;;;10.30;99.90;;;;;;5081431;28;20190;-81
2023/12/24 10:43:08;;;;;;;2.20;2.00;;;10.30;99.90;;;;;;5081051;28;20578;-80
2023/12/24 10:45:35;;;;;;;2.37;2.17;;;10.30;99.90;;;;;;5080484;28;20572;-79
2023/12/24 10:48:03;;;;;;;2.10;1.90;;;10.30;99.90;;;;;;5073119;28;20274;-80
2023/12/24 10:50:29;;;;;;;1.90;1.80;;;10.30;99.90;;;;;;5061603;28;20262;-79
2023/12/24 10:52:56;;;;;;;2.23;2.13;;;10.40;99.90;;;;;;5059907;28;20606;-80
2023/12/24 10:55:25;;;;;;;2.00;1.90;;;10.40;99.90;;;;;;5061514;28;20210;-79
2023/12/24 10:57:59;;;;;;;1.80;1.70;;;10.50;99.90;;;;;;5061346;28;20225;-77
2023/12/24 11:00:26;;;;;;;1.90;1.80;;;10.50;99.90;;;;;;5062004;28;20279;-79
2023/12/24 11:02:53;;;;;;;1.87;1.77;;;10.60;99.90;;;;;;5078972;28;20222;-80
2023/12/24 11:05:48;;;;;;;1.90;1.80;;;10.60;99.90;;;;;;5081665;28;20213;-79
2023/12/24 11:08:29;;;;;;;2.10;1.90;;;10.60;99.90;;;;;;5083260;28;20206;-82
2023/12/24 11:10:57;;;;;;;2.40;2.20;;;10.70;99.90;;;;;;5082615;28;20229;-82
2023/12/24 11:13:44;;;;;;;2.37;2.17;;;10.70;99.90;;;;;;5081856;28;20186;-81
2023/12/24 11:16:12;;;;;;;2.40;2.20;;;10.70;99.90;;;;;;5082362;28;20230;-81
2023/12/24 11:18:43;;;;;;;2.70;2.10;;;10.80;99.90;;;;;;5080707;28;20271;-81
2023/12/24 11:21:11;;;;;;;3.03;1.77;;;10.80;99.90;;;;;;5079619;28;20244;-82
2023/12/24 11:23:39;;;;;;;2.10;2.00;;;10.80;99.90;;;;;;5082075;28;20210;-84
2023/12/24 11:26:32;;;;;;;2.40;2.20;;;10.80;99.90;;;;;;5079974;28;20206;-84
2023/12/24 11:28:59;;;;;;;2.00;1.90;;;10.80;99.90;;;;;;5081268;28;20209;-81
2023/12/24 11:31:27;;;;;;;2.30;2.10;;;10.80;99.90;;;;;;5084960;28;20250;-82
2023/12/24 11:33:55;;;;;;;2.97;2.33;;;10.90;99.90;;;;;;5084699;28;20284;-79
2023/12/24 11:36:23;;;;;;;2.10;1.97;;;10.90;99.90;;;;;;5082875;28;20210;-80
2023/12/24 11:38:55;;;;;;;2.43;2.00;;;10.90;99.90;;;;;;5083498;28;20202;-81
2023/12/24 11:41:23;;;;;;;2.40;2.20;;;10.90;99.90;;;;;;5083708;28;20310;-81
2023/12/24 11:43:56;;;;;;;2.40;2.20;;;10.90;99.90;;;;;;5082862;28;20213;-80
2023/12/24 11:46:23;;;;;;;2.37;2.17;;;10.90;99.90;;;;;;5081917;28;20631;-82
2023/12/24 11:48:50;;;;;;;2.97;2.77;;;10.90;99.90;;;;;;5081554;28;20245;-83
2023/12/24 11:51:21;;;;;;;1.80;1.70;;;10.90;99.90;;;;;;5081767;28;20253;-80
2023/12/24 11:53:49;;;;;;;2.60;2.40;;;10.90;99.90;;;;;;5082638;28;20220;-80
2023/12/24 11:56:17;;;;;;;2.40;2.30;;;10.90;99.90;;;;;;5083109;28;20301;-82
2023/12/24 11:58:59;;;;;;;2.50;2.30;;;10.90;99.90;;;;;;5080989;28;20210;-81
2023/12/24 12:01:27;;;;;;;2.40;2.20;;;10.80;99.90;;;;;;5081299;28;20705;-80
2023/12/24 12:03:56;;;;;;;2.80;2.60;;;10.80;99.90;;;;;;5080631;28;20213;-81
2023/12/24 12:06:23;;;;;;;2.87;2.67;;;10.80;99.90;;;;;;5080800;28;20206;-83
2023/12/24 12:08:49;;;;;;;2.40;2.20;;;10.80;99.90;;;;;;5079735;28;20206;-84
2023/12/24 12:11:16;;;;;;;2.63;2.43;;;10.80;99.90;;;;;;5079765;28;20719;-82
2023/12/24 12:13:43;;;;;;;2.90;2.60;;;10.80;99.90;;;;;;5080425;28;20582;-82
2023/12/24 12:16:11;;;;;;;2.43;2.30;;;10.80;99.90;;;;;;5082376;28;20202;-84
2023/12/24 12:18:38;;;;;;;2.50;2.30;;;10.80;99.90;;;;;;5080856;28;20542;-81
2023/12/24 12:21:05;;;;;;;2.60;2.07;;;10.80;99.90;;;;;;5078637;28;20549;-79
2023/12/24 12:23:32;;;;;;;2.80;2.40;;;10.90;99.90;;;;;;5081894;28;20209;-80
2023/12/24 12:25:58;;;;;;;3.30;3.00;;;10.80;99.90;;;;;;5078024;28;20741;-79
2023/12/24 12:28:25;;;;;;;2.40;2.07;;;10.90;99.90;;;;;;5062984;28;20195;-82
2023/12/24 12:30:52;;;;;;;2.53;2.10;;;10.90;99.90;;;;;;5081192;28;20228;-81
2023/12/24 12:33:19;;;;;;;2.53;2.13;;;10.90;99.90;;;;;;5081739;28;20202;-80
2023/12/24 12:35:46;;;;;;;2.10;2.00;;;10.90;99.90;;;;;;5082031;28;20695;-81
2023/12/24 12:38:13;;;;;;;2.43;2.23;;;10.90;99.90;;;;;;5082438;28;20574;-82
2023/12/24 12:40:39;;;;;;;2.93;1.83;;;10.90;99.90;;;;;;5081442;28;20201;-83
2023/12/24 12:43:08;;;;;;;2.40;2.20;;;10.90;99.90;;;;;;5081488;28;20202;-81
2023/12/24 12:45:35;;;;;;;1.97;1.87;;;10.80;99.90;;;;;;5075784;28;20664;-82
2023/12/24 12:48:03;;;;;;;2.77;2.57;;;10.80;99.90;;;;;;5059742;28;20276;-82
2023/12/24 12:50:31;;;;;;;2.30;2.10;;;10.80;99.90;;;;;;5059695;28;20229;-82
2023/12/24 12:52:58;;;;;;;2.30;2.20;;;10.80;99.90;;;;;;5080925;28;20218;-80
2023/12/24 12:55:24;;;;;;;2.67;2.47;;;10.80;99.90;;;;;;5082604;28;20669;-81